sensor_id;sensor_type;location;lat;lon;timestamp;temperature;humidity
51595;DHT22;37677;53.254;6.594;2022-11-15T00:01:41;8.20;1.00
51595;DHT22;37677;53.254;6.594;2022-11-15T00:04:07;9.70;1.00
51595;DHT22;37677;53.254;6.594;2022-11-15T00:06:32;8.20;1.00
51595;DHT22;37677;53.254;6.594;2022-11-15T00:08:59;8.50;1.00
51595;DHT22;37677;53.254;6.594;2022-11-15T00:11:25;9.80;1.00
51595;DHT22;37677;53.254;6.594;2022-11-15T00:13:51;8.10;1.00
51595;DHT22;37677;53.254;6.594;2022-11-15T00:16:16;8.10;1.00
51595;DHT22;37677;53.254;6.594;2022-11-15T00:18:42;9.50;1.00
51595;DHT22;37677;53.254;6.594;2022-11-15T00:21:10;8.10;1.00
51595;DHT22;37677;53.254;6.594;2022-11-15T00:23:36;8.30;1.00
51595;DHT22;37677;53.254;6.594;2022-11-15T00:26:02;8.60;1.00
51595;DHT22;37677;53.254;6.594;2022-11-15T00:28:29;8.10;1.00
51595;DHT22;37677;53.254;6.594;2022-11-15T00:31:00;7.30;1.00
51595;DHT22;37677;53.254;6.594;2022-11-15T00:33:26;7.80;1.00
51595;DHT22;37677;53.254;6.594;2022-11-15T00:35:52;7.80;1.00
51595;DHT22;37677;53.254;6.594;2022-11-15T00:38:17;8.20;1.00
51595;DHT22;37677;53.254;6.594;2022-11-15T00:40:43;8.10;1.00
51595;DHT22;37677;53.254;6.594;2022-11-15T00:43:09;7.60;1.00
51595;DHT22;37677;53.254;6.594;2022-11-15T00:45:34;7.60;1.00
51595;DHT22;37677;53.254;6.594;2022-11-15T00:48:00;7.60;1.00
51595;DHT22;37677;53.254;6.594;2022-11-15T00:50:26;7.70;1.00
51595;DHT22;37677;53.254;6.594;2022-11-15T00:52:51;8.80;1.00
51595;DHT22;37677;53.254;6.594;2022-11-15T00:55:18;7.70;1.00
51595;DHT22;37677;53.254;6.594;2022-11-15T00:57:44;7.80;2.30
51595;DHT22;37677;53.254;6.594;2022-11-15T01:00:10;8.20;2.60
51595;DHT22;37677;53.254;6.594;2022-11-15T01:02:36;7.70;2.30
51595;DHT22;37677;53.254;6.594;2022-11-15T01:05:02;7.80;1.40
51595;DHT22;37677;53.254;6.594;2022-11-15T01:07:27;7.70;1.00
51595;DHT22;37677;53.254;6.594;2022-11-15T01:09:53;7.90;1.00
51595;DHT22;37677;53.254;6.594;2022-11-15T01:12:19;7.70;1.00
51595;DHT22;37677;53.254;6.594;2022-11-15T01:14:44;7.60;1.00
51595;DHT22;37677;53.254;6.594;2022-11-15T02:45:45;7.80;1.00
51595;DHT22;37677;53.254;6.594;2022-11-15T02:48:14;8.00;1.00
51595;DHT22;37677;53.254;6.594;2022-11-15T02:50:41;8.00;1.00
51595;DHT22;37677;53.254;6.594;2022-11-15T02:53:08;8.70;1.00
51595;DHT22;37677;53.254;6.594;2022-11-15T02:55:41;8.00;1.00
51595;DHT22;37677;53.254;6.594;2022-11-15T02:58:47;7.90;1.00
51595;DHT22;37677;53.254;6.594;2022-11-15T03:09:10;7.80;1.00
51595;DHT22;37677;53.254;6.594;2022-11-15T03:11:41;7.90;1.00
51595;DHT22;37677;53.254;6.594;2022-11-15T03:14:25;8.50;1.00
51595;DHT22;37677;53.254;6.594;2022-11-15T03:17:04;9.00;1.00
51595;DHT22;37677;53.254;6.594;2022-11-15T03:19:46;7.90;1.00
51595;DHT22;37677;53.254;6.594;2022-11-15T03:22:24;7.80;1.00
51595;DHT22;37677;53.254;6.594;2022-11-15T03:24:55;8.00;1.00
51595;DHT22;37677;53.254;6.594;2022-11-15T03:27:25;8.20;1.00
51595;DHT22;37677;53.254;6.594;2022-11-15T03:29:57;8.30;1.00
51595;DHT22;37677;53.254;6.594;2022-11-15T03:32:46;8.20;1.00
51595;DHT22;37677;53.254;6.594;2022-11-15T03:35:17;7.90;1.00
51595;DHT22;37677;53.254;6.594;2022-11-15T03:37:52;7.80;1.00
51595;DHT22;37677;53.254;6.594;2022-11-15T03:40:24;7.80;1.00
51595;DHT22;37677;53.254;6.594;2022-11-15T03:43:22;8.50;1.30
51595;DHT22;37677;53.254;6.594;2022-11-15T03:46:02;7.90;1.00
51595;DHT22;37677;53.254;6.594;2022-11-15T03:48:41;7.90;1.00
51595;DHT22;37677;53.254;6.594;2022-11-15T03:51:09;9.00;2.20
51595;DHT22;37677;53.254;6.594;2022-11-15T03:53:35;7.90;1.60
51595;DHT22;37677;53.254;6.594;2022-11-15T03:56:01;8.20;2.10
51595;DHT22;37677;53.254;6.594;2022-11-15T03:58:26;7.90;2.30
51595;DHT22;37677;53.254;6.594;2022-11-15T04:00:52;9.30;3.40
51595;DHT22;37677;53.254;6.594;2022-11-15T04:03:18;7.90;4.10
51595;DHT22;37677;53.254;6.594;2022-11-15T04:05:43;8.10;4.80
51595;DHT22;37677;53.254;6.594;2022-11-15T04:08:09;8.70;6.60
51595;DHT22;37677;53.254;6.594;2022-11-15T04:10:35;8.10;6.40
51595;DHT22;37677;53.254;6.594;2022-11-15T04:13:02;8.20;6.60
51595;DHT22;37677;53.254;6.594;2022-11-15T04:15:28;8.20;7.00
51595;DHT22;37677;53.254;6.594;2022-11-15T04:17:56;8.90;7.50
51595;DHT22;37677;53.254;6.594;2022-11-15T04:23:12;8.10;7.20
51595;DHT22;37677;53.254;6.594;2022-11-15T04:26:00;9.50;9.80
51595;DHT22;37677;53.254;6.594;2022-11-15T04:28:26;8.10;9.00
51595;DHT22;37677;53.254;6.594;2022-11-15T04:30:52;8.10;9.80
51595;DHT22;37677;53.254;6.594;2022-11-15T04:33:18;8.20;9.80
51595;DHT22;37677;53.254;6.594;2022-11-15T04:35:44;8.40;9.90
51595;DHT22;37677;53.254;6.594;2022-11-15T04:38:30;8.30;10.70
51595;DHT22;37677;53.254;6.594;2022-11-15T04:40:55;8.20;11.00
51595;DHT22;37677;53.254;6.594;2022-11-15T04:45:48;8.20;11.20
51595;DHT22;37677;53.254;6.594;2022-11-15T04:48:14;8.20;13.30
51595;DHT22;37677;53.254;6.594;2022-11-15T04:50:39;9.70;14.30
51595;DHT22;37677;53.254;6.594;2022-11-15T04:53:05;9.00;15.10
51595;DHT22;37677;53.254;6.594;2022-11-15T04:55:31;8.20;14.40
51595;DHT22;37677;53.254;6.594;2022-11-15T04:57:58;9.40;15.90
51595;DHT22;37677;53.254;6.594;2022-11-15T05:00:25;8.80;16.20
51595;DHT22;37677;53.254;6.594;2022-11-15T05:02:51;8.40;16.70
51595;DHT22;37677;53.254;6.594;2022-11-15T05:05:35;8.20;25.50
51595;DHT22;37677;53.254;6.594;2022-11-15T05:08:01;8.20;16.80
51595;DHT22;37677;53.254;6.594;2022-11-15T05:10:26;8.40;17.90
51595;DHT22;37677;53.254;6.594;2022-11-15T05:12:52;8.30;18.20
51595;DHT22;37677;53.254;6.594;2022-11-15T05:15:18;8.30;18.60
51595;DHT22;37677;53.254;6.594;2022-11-15T05:17:43;8.30;19.70
51595;DHT22;37677;53.254;6.594;2022-11-15T05:20:09;8.30;20.20
51595;DHT22;37677;53.254;6.594;2022-11-15T05:22:35;7.40;20.00
51595;DHT22;37677;53.254;6.594;2022-11-15T05:25:01;9.10;22.30
51595;DHT22;37677;53.254;6.594;2022-11-15T05:27:27;8.40;21.90
51595;DHT22;37677;53.254;6.594;2022-11-15T05:29:52;9.50;22.70
51595;DHT22;37677;53.254;6.594;2022-11-15T05:32:18;8.50;23.60
51595;DHT22;37677;53.254;6.594;2022-11-15T05:34:44;9.90;24.50
51595;DHT22;37677;53.254;6.594;2022-11-15T05:37:10;8.50;24.20
51595;DHT22;37677;53.254;6.594;2022-11-15T05:39:36;9.10;24.90
51595;DHT22;37677;53.254;6.594;2022-11-15T05:42:13;8.50;25.30
51595;DHT22;37677;53.254;6.594;2022-11-15T05:44:41;8.80;25.90
51595;DHT22;37677;53.254;6.594;2022-11-15T05:47:10;8.60;27.20
51595;DHT22;37677;53.254;6.594;2022-11-15T05:49:38;9.20;26.40
51595;DHT22;37677;53.254;6.594;2022-11-15T05:52:07;8.60;27.50
51595;DHT22;37677;53.254;6.594;2022-11-15T05:54:36;8.60;27.00
51595;DHT22;37677;53.254;6.594;2022-11-15T05:57:04;8.60;27.80
51595;DHT22;37677;53.254;6.594;2022-11-15T05:59:30;10.30;29.10
51595;DHT22;37677;53.254;6.594;2022-11-15T06:01:57;8.60;28.60
51595;DHT22;37677;53.254;6.594;2022-11-15T06:04:23;9.40;29.30
51595;DHT22;37677;53.254;6.594;2022-11-15T06:06:49;8.60;29.40
51595;DHT22;37677;53.254;6.594;2022-11-15T06:09:14;8.80;31.30
51595;DHT22;37677;53.254;6.594;2022-11-15T06:11:40;8.90;30.70
51595;DHT22;37677;53.254;6.594;2022-11-15T06:14:06;8.70;32.10
51595;DHT22;37677;53.254;6.594;2022-11-15T06:16:31;10.20;35.20
51595;DHT22;37677;53.254;6.594;2022-11-15T06:18:57;9.80;34.20
51595;DHT22;37677;53.254;6.594;2022-11-15T06:21:23;8.80;34.00
51595;DHT22;37677;53.254;6.594;2022-11-15T06:23:49;9.40;34.90
51595;DHT22;37677;53.254;6.594;2022-11-15T06:26:15;8.60;35.50
51595;DHT22;37677;53.254;6.594;2022-11-15T06:28:40;8.90;35.60
51595;DHT22;37677;53.254;6.594;2022-11-15T06:31:08;8.80;36.60
51595;DHT22;37677;53.254;6.594;2022-11-15T06:33:35;9.00;36.80
51595;DHT22;37677;53.254;6.594;2022-11-15T06:36:05;9.00;37.50
51595;DHT22;37677;53.254;6.594;2022-11-15T06:38:30;8.90;38.20
51595;DHT22;37677;53.254;6.594;2022-11-15T06:41:07;9.20;38.60
51595;DHT22;37677;53.254;6.594;2022-11-15T06:43:34;10.80;40.80
51595;DHT22;37677;53.254;6.594;2022-11-15T06:46:01;9.60;39.80
51595;DHT22;37677;53.254;6.594;2022-11-15T06:48:28;9.20;47.80
51595;DHT22;37677;53.254;6.594;2022-11-15T06:50:55;9.30;42.10
51595;DHT22;37677;53.254;6.594;2022-11-15T06:53:21;9.30;54.20
51595;DHT22;37677;53.254;6.594;2022-11-15T06:55:47;9.70;59.00
51595;DHT22;37677;53.254;6.594;2022-11-15T06:58:13;9.90;64.10
51595;DHT22;37677;53.254;6.594;2022-11-15T07:00:39;9.10;65.80
51595;DHT22;37677;53.254;6.594;2022-11-15T07:03:05;9.60;62.50
51595;DHT22;37677;53.254;6.594;2022-11-15T07:05:31;9.30;52.70
51595;DHT22;37677;53.254;6.594;2022-11-15T07:07:58;9.20;43.60
51595;DHT22;37677;53.254;6.594;2022-11-15T07:10:24;9.30;43.50
51595;DHT22;37677;53.254;6.594;2022-11-15T07:12:54;9.20;44.00
51595;DHT22;37677;53.254;6.594;2022-11-15T07:15:22;9.30;44.30
51595;DHT22;37677;53.254;6.594;2022-11-15T07:17:48;9.40;45.90
51595;DHT22;37677;53.254;6.594;2022-11-15T07:20:14;9.50;47.00
51595;DHT22;37677;53.254;6.594;2022-11-15T07:22:41;10.00;48.90
51595;DHT22;37677;53.254;6.594;2022-11-15T07:25:08;10.20;50.00
51595;DHT22;37677;53.254;6.594;2022-11-15T07:27:35;9.70;58.40
51595;DHT22;37677;53.254;6.594;2022-11-15T07:30:01;9.70;59.50
51595;DHT22;37677;53.254;6.594;2022-11-15T07:32:26;9.70;51.10
51595;DHT22;37677;53.254;6.594;2022-11-15T07:37:18;9.90;51.20
51595;DHT22;37677;53.254;6.594;2022-11-15T07:39:44;10.10;51.90
51595;DHT22;37677;53.254;6.594;2022-11-15T07:42:10;10.00;52.40
51595;DHT22;37677;53.254;6.594;2022-11-15T07:44:54;10.00;52.30
51595;DHT22;37677;53.254;6.594;2022-11-15T07:47:20;9.90;54.60
51595;DHT22;37677;53.254;6.594;2022-11-15T07:49:46;10.00;54.30
51595;DHT22;37677;53.254;6.594;2022-11-15T07:54:39;10.10;53.80
51595;DHT22;37677;53.254;6.594;2022-11-15T07:57:05;10.20;54.60
51595;DHT22;37677;53.254;6.594;2022-11-15T07:59:32;11.70;55.70
51595;DHT22;37677;53.254;6.594;2022-11-15T08:02:00;10.20;55.10
51595;DHT22;37677;53.254;6.594;2022-11-15T08:04:26;10.20;55.30
51595;DHT22;37677;53.254;6.594;2022-11-15T08:09:19;10.40;55.30
51595;DHT22;37677;53.254;6.594;2022-11-15T08:11:45;10.40;58.90
51595;DHT22;37677;53.254;6.594;2022-11-15T08:14:11;11.00;76.70
51595;DHT22;37677;53.254;6.594;2022-11-15T08:16:36;10.60;81.50
51595;DHT22;37677;53.254;6.594;2022-11-15T08:19:02;11.00;83.30
51595;DHT22;37677;53.254;6.594;2022-11-15T08:21:27;10.60;79.30
51595;DHT22;37677;53.254;6.594;2022-11-15T08:23:53;10.70;79.70
51595;DHT22;37677;53.254;6.594;2022-11-15T08:26:19;10.80;66.90
51595;DHT22;37677;53.254;6.594;2022-11-15T08:28:44;10.70;58.60
51595;DHT22;37677;53.254;6.594;2022-11-15T08:31:15;10.70;58.00
51595;DHT22;37677;53.254;6.594;2022-11-15T08:33:42;10.70;57.10
51595;DHT22;37677;53.254;6.594;2022-11-15T08:36:15;10.70;56.50
51595;DHT22;37677;53.254;6.594;2022-11-15T08:38:42;10.70;56.40
51595;DHT22;37677;53.254;6.594;2022-11-15T08:41:13;10.70;56.50
51595;DHT22;37677;53.254;6.594;2022-11-15T08:43:40;10.80;56.30
51595;DHT22;37677;53.254;6.594;2022-11-15T08:46:07;10.80;56.40
51595;DHT22;37677;53.254;6.594;2022-11-15T08:48:34;10.80;56.10
51595;DHT22;37677;53.254;6.594;2022-11-15T08:50:59;10.80;55.70
51595;DHT22;37677;53.254;6.594;2022-11-15T08:53:25;11.60;55.80
51595;DHT22;37677;53.254;6.594;2022-11-15T08:55:51;10.90;55.60
51595;DHT22;37677;53.254;6.594;2022-11-15T08:58:16;11.00;54.90
51595;DHT22;37677;53.254;6.594;2022-11-15T09:00:42;10.90;54.90
51595;DHT22;37677;53.254;6.594;2022-11-15T09:03:07;11.30;54.80
51595;DHT22;37677;53.254;6.594;2022-11-15T09:05:36;11.70;54.60
51595;DHT22;37677;53.254;6.594;2022-11-15T09:08:02;11.00;54.70
51595;DHT22;37677;53.254;6.594;2022-11-15T09:10:27;11.10;55.40
51595;DHT22;37677;53.254;6.594;2022-11-15T09:12:53;11.20;55.90
51595;DHT22;37677;53.254;6.594;2022-11-15T09:15:18;11.30;56.60
51595;DHT22;37677;53.254;6.594;2022-11-15T09:17:45;11.40;55.30
51595;DHT22;37677;53.254;6.594;2022-11-15T09:20:11;11.50;53.80
51595;DHT22;37677;53.254;6.594;2022-11-15T09:22:36;11.50;51.80
51595;DHT22;37677;53.254;6.594;2022-11-15T09:25:04;13.00;50.70
51595;DHT22;37677;53.254;6.594;2022-11-15T09:27:30;11.60;47.40
51595;DHT22;37677;53.254;6.594;2022-11-15T09:29:56;11.90;46.50
51595;DHT22;37677;53.254;6.594;2022-11-15T09:32:22;11.50;45.70
51595;DHT22;37677;53.254;6.594;2022-11-15T09:34:49;11.40;44.80
51595;DHT22;37677;53.254;6.594;2022-11-15T09:37:15;11.60;44.50
51595;DHT22;37677;53.254;6.594;2022-11-15T09:39:42;11.60;43.20
51595;DHT22;37677;53.254;6.594;2022-11-15T09:45:31;11.70;40.90
51595;DHT22;37677;53.254;6.594;2022-11-15T09:48:19;11.70;40.90
51595;DHT22;37677;53.254;6.594;2022-11-15T09:50:51;11.80;39.40
51595;DHT22;37677;53.254;6.594;2022-11-15T09:56:29;11.90;35.80
51595;DHT22;37677;53.254;6.594;2022-11-15T10:02:30;11.80;33.20
51595;DHT22;37677;53.254;6.594;2022-11-15T10:04:33;11.80;31.10
51595;DHT22;37677;53.254;6.594;2022-11-15T10:07:14;12.20;31.80
51595;DHT22;37677;53.254;6.594;2022-11-15T10:09:49;13.10;32.50
51595;DHT22;37677;53.254;6.594;2022-11-15T10:12:17;11.80;29.40
51595;DHT22;37677;53.254;6.594;2022-11-15T10:14:43;11.90;28.20
51595;DHT22;37677;53.254;6.594;2022-11-15T10:17:40;12.60;27.90
51595;DHT22;37677;53.254;6.594;2022-11-15T10:20:26;11.90;27.60
51595;DHT22;37677;53.254;6.594;2022-11-15T10:23:01;11.90;27.60
51595;DHT22;37677;53.254;6.594;2022-11-15T10:25:34;11.90;25.70
51595;DHT22;37677;53.254;6.594;2022-11-15T10:28:16;11.90;26.30
51595;DHT22;37677;53.254;6.594;2022-11-15T10:30:47;11.90;25.80
51595;DHT22;37677;53.254;6.594;2022-11-15T10:33:18;11.90;26.50
51595;DHT22;37677;53.254;6.594;2022-11-15T10:35:45;12.00;25.70
51595;DHT22;37677;53.254;6.594;2022-11-15T10:38:12;12.00;26.40
51595;DHT22;37677;53.254;6.594;2022-11-15T10:40:39;12.00;25.70
51595;DHT22;37677;53.254;6.594;2022-11-15T10:43:13;12.00;25.00
51595;DHT22;37677;53.254;6.594;2022-11-15T10:45:39;12.00;25.40
51595;DHT22;37677;53.254;6.594;2022-11-15T10:50:37;13.50;24.20
51595;DHT22;37677;53.254;6.594;2022-11-15T10:53:04;12.10;23.50
51595;DHT22;37677;53.254;6.594;2022-11-15T10:55:38;12.00;23.10
51595;DHT22;37677;53.254;6.594;2022-11-15T10:58:36;12.10;22.30
51595;DHT22;37677;53.254;6.594;2022-11-15T11:01:26;12.10;22.00
51595;DHT22;37677;53.254;6.594;2022-11-15T11:03:59;12.10;20.40
51595;DHT22;37677;53.254;6.594;2022-11-15T11:06:25;12.50;20.80
51595;DHT22;37677;53.254;6.594;2022-11-15T11:08:59;12.20;20.80
51595;DHT22;37677;53.254;6.594;2022-11-15T11:11:47;12.20;20.80
51595;DHT22;37677;53.254;6.594;2022-11-15T11:17:15;12.10;20.10
51595;DHT22;37677;53.254;6.594;2022-11-15T11:19:50;12.10;20.70
51595;DHT22;37677;53.254;6.594;2022-11-15T11:27:47;12.10;23.30
51595;DHT22;37677;53.254;6.594;2022-11-15T11:30:23;12.00;24.10
51595;DHT22;37677;53.254;6.594;2022-11-15T11:37:54;12.10;27.60
51595;DHT22;37677;53.254;6.594;2022-11-15T11:40:37;12.10;28.90
51595;DHT22;37677;53.254;6.594;2022-11-15T11:43:13;12.20;30.10
51595;DHT22;37677;53.254;6.594;2022-11-15T11:48:41;12.40;32.20
51595;DHT22;37677;53.254;6.594;2022-11-15T11:51:15;12.40;33.80
51595;DHT22;37677;53.254;6.594;2022-11-15T11:53:58;12.50;32.40
51595;DHT22;37677;53.254;6.594;2022-11-15T11:56:28;12.50;31.20
51595;DHT22;37677;53.254;6.594;2022-11-15T11:59:00;12.70;33.60
51595;DHT22;37677;53.254;6.594;2022-11-15T12:01:35;13.00;34.00
51595;DHT22;37677;53.254;6.594;2022-11-15T12:04:27;13.10;30.00
51595;DHT22;37677;53.254;6.594;2022-11-15T12:09:48;12.90;23.70
51595;DHT22;37677;53.254;6.594;2022-11-15T12:12:38;12.90;22.30
51595;DHT22;37677;53.254;6.594;2022-11-15T12:15:14;12.90;19.10
51595;DHT22;37677;53.254;6.594;2022-11-15T12:17:41;12.60;16.80
51595;DHT22;37677;53.254;6.594;2022-11-15T12:25:45;12.60;13.80
51595;DHT22;37677;53.254;6.594;2022-11-15T12:28:39;12.60;12.90
51595;DHT22;37677;53.254;6.594;2022-11-15T12:33:47;12.60;9.70
51595;DHT22;37677;53.254;6.594;2022-11-15T12:41:20;11.20;1.00
51595;DHT22;37677;53.254;6.594;2022-11-15T12:43:47;12.30;1.00
51595;DHT22;37677;53.254;6.594;2022-11-15T12:49:02;12.60;1.00
51595;DHT22;37677;53.254;6.594;2022-11-15T13:17:52;12.60;1.00
51595;DHT22;37677;53.254;6.594;2022-11-15T13:20:32;12.40;1.00
51595;DHT22;37677;53.254;6.594;2022-11-15T13:23:07;13.10;1.00
51595;DHT22;37677;53.254;6.594;2022-11-15T13:30:49;12.90;1.00
51595;DHT22;37677;53.254;6.594;2022-11-15T13:33:27;12.90;1.00
51595;DHT22;37677;53.254;6.594;2022-11-15T13:35:58;12.90;1.00
51595;DHT22;37677;53.254;6.594;2022-11-15T13:40:52;12.90;1.00
51595;DHT22;37677;53.254;6.594;2022-11-15T13:46:24;12.60;1.00
51595;DHT22;37677;53.254;6.594;2022-11-15T13:48:53;12.60;1.00
51595;DHT22;37677;53.254;6.594;2022-11-15T13:51:30;12.50;1.00
51595;DHT22;37677;53.254;6.594;2022-11-15T13:54:02;12.50;1.00
51595;DHT22;37677;53.254;6.594;2022-11-15T13:56:30;12.80;1.00
51595;DHT22;37677;53.254;6.594;2022-11-15T13:58:57;12.40;1.00
51595;DHT22;37677;53.254;6.594;2022-11-15T14:01:23;14.60;1.00
51595;DHT22;37677;53.254;6.594;2022-11-15T14:03:59;12.40;1.00
51595;DHT22;37677;53.254;6.594;2022-11-15T14:06:29;12.30;1.00
51595;DHT22;37677;53.254;6.594;2022-11-15T14:11:56;12.30;1.00
51595;DHT22;37677;53.254;6.594;2022-11-15T14:14:29;12.50;1.00
51595;DHT22;37677;53.254;6.594;2022-11-15T14:17:00;12.20;1.00
51595;DHT22;37677;53.254;6.594;2022-11-15T14:24:40;12.10;1.00
51595;DHT22;37677;53.254;6.594;2022-11-15T14:27:21;12.30;1.00
51595;DHT22;37677;53.254;6.594;2022-11-15T14:29:48;12.30;1.00
51595;DHT22;37677;53.254;6.594;2022-11-15T14:32:22;12.00;1.00
51595;DHT22;37677;53.254;6.594;2022-11-15T14:34:53;12.00;1.00
51595;DHT22;37677;53.254;6.594;2022-11-15T14:37:26;12.00;1.00
51595;DHT22;37677;53.254;6.594;2022-11-15T14:39:53;12.00;1.00
51595;DHT22;37677;53.254;6.594;2022-11-15T14:42:20;12.70;1.00
51595;DHT22;37677;53.254;6.594;2022-11-15T14:44:46;11.90;1.00
51595;DHT22;37677;53.254;6.594;2022-11-15T14:47:12;12.40;1.00
51595;DHT22;37677;53.254;6.594;2022-11-15T14:49:38;11.80;1.00
51595;DHT22;37677;53.254;6.594;2022-11-15T14:52:27;11.80;1.00
51595;DHT22;37677;53.254;6.594;2022-11-15T14:54:55;11.80;1.00
51595;DHT22;37677;53.254;6.594;2022-11-15T14:57:21;11.70;1.00
51595;DHT22;37677;53.254;6.594;2022-11-15T14:59:47;11.70;1.00
51595;DHT22;37677;53.254;6.594;2022-11-15T15:02:20;11.70;1.00
51595;DHT22;37677;53.254;6.594;2022-11-15T15:04:46;11.70;1.00
51595;DHT22;37677;53.254;6.594;2022-11-15T15:07:12;11.60;1.00
51595;DHT22;37677;53.254;6.594;2022-11-15T15:09:38;11.90;1.00
51595;DHT22;37677;53.254;6.594;2022-11-15T15:12:10;11.50;1.00
51595;DHT22;37677;53.254;6.594;2022-11-15T15:14:37;11.50;1.00
51595;DHT22;37677;53.254;6.594;2022-11-15T15:17:03;11.50;1.00
51595;DHT22;37677;53.254;6.594;2022-11-15T15:19:29;11.50;1.00
51595;DHT22;37677;53.254;6.594;2022-11-15T15:21:55;11.40;1.00
51595;DHT22;37677;53.254;6.594;2022-11-15T15:24:20;12.70;1.00
51595;DHT22;37677;53.254;6.594;2022-11-15T15:26:46;11.30;1.00
51595;DHT22;37677;53.254;6.594;2022-11-15T15:29:11;11.30;1.00
51595;DHT22;37677;53.254;6.594;2022-11-15T15:31:37;11.20;1.00
51595;DHT22;37677;53.254;6.594;2022-11-15T15:34:03;11.20;1.00
51595;DHT22;37677;53.254;6.594;2022-11-15T15:36:28;11.20;1.00
51595;DHT22;37677;53.254;6.594;2022-11-15T15:38:54;11.70;1.00
51595;DHT22;37677;53.254;6.594;2022-11-15T15:41:20;11.20;1.00
51595;DHT22;37677;53.254;6.594;2022-11-15T15:43:46;11.10;1.00
51595;DHT22;37677;53.254;6.594;2022-11-15T15:46:18;11.10;1.00
51595;DHT22;37677;53.254;6.594;2022-11-15T15:48:44;11.10;1.00
51595;DHT22;37677;53.254;6.594;2022-11-15T15:51:10;11.00;1.00
51595;DHT22;37677;53.254;6.594;2022-11-15T15:53:37;11.00;1.00
51595;DHT22;37677;53.254;6.594;2022-11-15T15:56:02;10.40;1.00
51595;DHT22;37677;53.254;6.594;2022-11-15T15:58:28;11.00;1.00
51595;DHT22;37677;53.254;6.594;2022-11-15T16:00:54;10.90;1.00
51595;DHT22;37677;53.254;6.594;2022-11-15T16:03:19;11.10;1.00
51595;DHT22;37677;53.254;6.594;2022-11-15T16:05:45;10.90;1.00
51595;DHT22;37677;53.254;6.594;2022-11-15T16:08:22;11.60;1.00
51595;DHT22;37677;53.254;6.594;2022-11-15T16:10:48;11.20;1.00
51595;DHT22;37677;53.254;6.594;2022-11-15T16:13:15;12.00;1.00
51595;DHT22;37677;53.254;6.594;2022-11-15T16:15:42;10.90;1.00
51595;DHT22;37677;53.254;6.594;2022-11-15T16:18:18;10.90;1.00
51595;DHT22;37677;53.254;6.594;2022-11-15T16:20:46;10.90;1.00
51595;DHT22;37677;53.254;6.594;2022-11-15T16:23:18;10.80;1.00
51595;DHT22;37677;53.254;6.594;2022-11-15T16:25:53;10.80;1.00
51595;DHT22;37677;53.254;6.594;2022-11-15T16:28:24;10.80;1.00
51595;DHT22;37677;53.254;6.594;2022-11-15T16:31:00;11.10;1.00
51595;DHT22;37677;53.254;6.594;2022-11-15T16:33:27;10.80;1.00
51595;DHT22;37677;53.254;6.594;2022-11-15T16:35:52;10.70;1.00
51595;DHT22;37677;53.254;6.594;2022-11-15T16:38:18;10.80;1.00
51595;DHT22;37677;53.254;6.594;2022-11-15T16:40:44;10.90;1.00
51595;DHT22;37677;53.254;6.594;2022-11-15T16:43:10;10.80;1.00
51595;DHT22;37677;53.254;6.594;2022-11-15T16:45:35;10.90;1.00
51595;DHT22;37677;53.254;6.594;2022-11-15T16:48:01;10.90;1.00
51595;DHT22;37677;53.254;6.594;2022-11-15T16:50:29;11.00;1.00
51595;DHT22;37677;53.254;6.594;2022-11-15T16:52:57;11.90;1.00
51595;DHT22;37677;53.254;6.594;2022-11-15T16:55:26;10.60;1.00
51595;DHT22;37677;53.254;6.594;2022-11-15T16:57:54;11.10;1.00
51595;DHT22;37677;53.254;6.594;2022-11-15T17:00:20;11.00;1.00
51595;DHT22;37677;53.254;6.594;2022-11-15T17:02:48;11.20;1.00
51595;DHT22;37677;53.254;6.594;2022-11-15T17:05:16;11.00;1.00
51595;DHT22;37677;53.254;6.594;2022-11-15T17:07:42;11.00;1.00
51595;DHT22;37677;53.254;6.594;2022-11-15T17:10:09;11.00;1.00
51595;DHT22;37677;53.254;6.594;2022-11-15T17:12:36;11.10;1.00
51595;DHT22;37677;53.254;6.594;2022-11-15T17:15:03;11.10;1.00
51595;DHT22;37677;53.254;6.594;2022-11-15T17:17:29;11.10;1.00
51595;DHT22;37677;53.254;6.594;2022-11-15T17:19:55;11.20;1.00
51595;DHT22;37677;53.254;6.594;2022-11-15T17:22:21;11.20;1.00
51595;DHT22;37677;53.254;6.594;2022-11-15T17:24:47;11.10;1.00
51595;DHT22;37677;53.254;6.594;2022-11-15T17:27:12;11.10;1.00
51595;DHT22;37677;53.254;6.594;2022-11-15T17:29:39;11.10;1.00
51595;DHT22;37677;53.254;6.594;2022-11-15T17:32:06;11.10;1.00
51595;DHT22;37677;53.254;6.594;2022-11-15T17:34:32;11.10;1.00
51595;DHT22;37677;53.254;6.594;2022-11-15T17:36:58;11.30;1.00
51595;DHT22;37677;53.254;6.594;2022-11-15T17:39:23;11.10;1.00
51595;DHT22;37677;53.254;6.594;2022-11-15T17:41:49;11.10;1.00
51595;DHT22;37677;53.254;6.594;2022-11-15T17:44:15;11.00;1.00
51595;DHT22;37677;53.254;6.594;2022-11-15T17:46:41;11.10;1.00
51595;DHT22;37677;53.254;6.594;2022-11-15T17:49:07;11.10;1.00
51595;DHT22;37677;53.254;6.594;2022-11-15T17:51:33;11.00;1.00
51595;DHT22;37677;53.254;6.594;2022-11-15T17:53:59;11.10;1.00
51595;DHT22;37677;53.254;6.594;2022-11-15T17:56:26;11.10;1.00
51595;DHT22;37677;53.254;6.594;2022-11-15T17:58:56;11.10;1.00
51595;DHT22;37677;53.254;6.594;2022-11-15T18:01:25;11.00;1.00
51595;DHT22;37677;53.254;6.594;2022-11-15T18:03:51;10.80;1.00
51595;DHT22;37677;53.254;6.594;2022-11-15T18:06:18;11.00;1.00
51595;DHT22;37677;53.254;6.594;2022-11-15T18:08:46;11.00;1.00
51595;DHT22;37677;53.254;6.594;2022-11-15T18:11:15;10.90;1.00
51595;DHT22;37677;53.254;6.594;2022-11-15T18:13:43;11.00;1.00
51595;DHT22;37677;53.254;6.594;2022-11-15T18:16:17;11.50;1.00
51595;DHT22;37677;53.254;6.594;2022-11-15T18:18:43;12.60;1.00
51595;DHT22;37677;53.254;6.594;2022-11-15T18:21:21;11.50;1.00
51595;DHT22;37677;53.254;6.594;2022-11-15T18:23:48;10.90;1.00
51595;DHT22;37677;53.254;6.594;2022-11-15T18:26:17;11.00;1.00
51595;DHT22;37677;53.254;6.594;2022-11-15T18:28:47;11.10;1.00
51595;DHT22;37677;53.254;6.594;2022-11-15T18:31:16;13.20;1.00
51595;DHT22;37677;53.254;6.594;2022-11-15T18:33:43;11.30;1.00
51595;DHT22;37677;53.254;6.594;2022-11-15T18:36:12;11.20;99.90
51595;DHT22;37677;53.254;6.594;2022-11-15T18:38:39;10.90;99.90
51595;DHT22;37677;53.254;6.594;2022-11-15T18:43:37;11.20;99.90
51595;DHT22;37677;53.254;6.594;2022-11-15T18:46:10;11.10;99.90
51595;DHT22;37677;53.254;6.594;2022-11-15T18:48:37;11.10;99.90
51595;DHT22;37677;53.254;6.594;2022-11-15T18:53:30;11.10;99.90
51595;DHT22;37677;53.254;6.594;2022-11-15T18:56:10;12.00;99.90
51595;DHT22;37677;53.254;6.594;2022-11-15T18:58:42;11.10;99.90
51595;DHT22;37677;53.254;6.594;2022-11-15T19:01:13;11.10;99.90
51595;DHT22;37677;53.254;6.594;2022-11-15T19:03:41;11.60;99.90
51595;DHT22;37677;53.254;6.594;2022-11-15T19:06:13;11.10;99.90
51595;DHT22;37677;53.254;6.594;2022-11-15T19:08:40;11.10;99.90
51595;DHT22;37677;53.254;6.594;2022-11-15T19:11:13;11.10;99.90
51595;DHT22;37677;53.254;6.594;2022-11-15T19:13:40;12.10;99.90
51595;DHT22;37677;53.254;6.594;2022-11-15T19:16:06;11.10;99.90
51595;DHT22;37677;53.254;6.594;2022-11-15T19:18:32;11.10;99.90
51595;DHT22;37677;53.254;6.594;2022-11-15T19:21:05;11.00;99.90
51595;DHT22;37677;53.254;6.594;2022-11-15T19:23:38;11.10;99.90